createdAt,value
2019-04-14T00:01:28.997Z,13.43
2019-04-14T00:04:16.415Z,11.03
2019-04-14T00:06:46.411Z,11.07
2019-04-14T00:09:20.447Z,9.83
2019-04-14T00:11:50.523Z,11.10
2019-04-14T00:14:20.777Z,10.90
2019-04-14T00:16:51.046Z,10.07
2019-04-14T00:19:21.704Z,12.13
2019-04-14T00:21:52.873Z,9.40
2019-04-14T00:24:22.813Z,11.90
2019-04-14T00:26:53.107Z,10.40
2019-04-14T00:29:23.888Z,10.13
2019-04-14T00:31:55.386Z,8.43
2019-04-14T00:34:51.200Z,10.80
2019-04-14T00:37:30.076Z,9.40
2019-04-14T00:40:06.203Z,9.17
2019-04-14T00:42:54.214Z,9.87
2019-04-14T00:45:45.303Z,10.63
2019-04-14T00:48:18.936Z,9.10
2019-04-14T00:50:47.464Z,10.27
2019-04-14T00:53:18.507Z,9.10
2019-04-14T00:55:48.952Z,8.83
2019-04-14T00:58:19.212Z,11.40
2019-04-14T01:00:50.053Z,10.37
2019-04-14T01:03:20.090Z,8.83
2019-04-14T01:05:50.355Z,10.33
2019-04-14T01:08:20.642Z,11.63
2019-04-14T01:10:51.871Z,10.43
2019-04-14T01:13:22.179Z,9.17
2019-04-14T01:16:01.570Z,10.23
2019-04-14T01:18:23.923Z,10.90
2019-04-14T01:20:53.778Z,8.57
2019-04-14T01:23:23.997Z,10.53
2019-04-14T01:25:54.272Z,9.07
2019-04-14T01:28:24.414Z,9.60
2019-04-14T01:30:54.489Z,9.70
2019-04-14T01:33:25.041Z,8.73
2019-04-14T01:35:55.280Z,9.63
2019-04-14T01:38:27.530Z,9.03
2019-04-14T01:40:57.793Z,8.00
2019-04-14T01:43:27.858Z,9.50
2019-04-14T01:46:05.132Z,8.07
2019-04-14T01:48:30.054Z,9.73
2019-04-14T01:51:28.873Z,7.53
2019-04-14T01:54:14.997Z,7.73
2019-04-14T01:57:04.607Z,10.13
2019-04-14T01:59:34.914Z,9.20
2019-04-14T02:02:07.528Z,8.20
2019-04-14T02:04:37.755Z,8.63
2019-04-14T02:07:08.178Z,8.93
2019-04-14T02:09:38.278Z,9.37
2019-04-14T02:12:08.467Z,8.50
2019-04-14T02:14:38.763Z,7.83
2019-04-14T02:17:09.444Z,8.30
2019-04-14T02:19:39.655Z,7.93
2019-04-14T02:22:09.621Z,8.13
2019-04-14T02:24:39.611Z,8.23
2019-04-14T02:27:09.842Z,8.10
2019-04-14T02:29:40.776Z,9.13
2019-04-14T02:35:16.011Z,8.07
2019-04-14T02:37:51.893Z,8.13
2019-04-14T02:42:46.507Z,8.10
2019-04-14T02:45:19.347Z,8.47
2019-04-14T02:48:12.094Z,9.00
2019-04-14T02:50:24.531Z,7.87
2019-04-14T02:53:10.920Z,8.70
2019-04-14T02:55:40.976Z,7.07
2019-04-14T02:58:10.464Z,8.67
2019-04-14T03:00:58.444Z,7.57
2019-04-14T03:03:16.948Z,8.00
2019-04-14T03:05:55.789Z,7.03
2019-04-14T03:08:19.758Z,7.47
2019-04-14T03:10:47.504Z,7.83
2019-04-14T03:13:21.317Z,6.87
2019-04-14T03:18:39.516Z,6.70
2019-04-14T03:27:04.876Z,7.67
2019-04-14T03:29:43.412Z,7.60
2019-04-14T03:32:23.437Z,7.17
2019-04-14T03:34:55.893Z,7.40
2019-04-14T03:39:51.650Z,6.63
2019-04-14T03:44:49.260Z,6.40
2019-04-14T03:49:52.456Z,6.53
2019-04-14T03:52:35.512Z,6.87
2019-04-14T03:54:52.641Z,5.57
2019-04-14T03:57:04.707Z,7.13
2019-04-14T03:59:34.617Z,5.47
2019-04-14T04:02:05.333Z,7.43
2019-04-14T04:04:35.849Z,7.30
2019-04-14T04:07:06.190Z,6.07
2019-04-14T04:09:41.446Z,7.10
2019-04-14T04:12:12.350Z,6.27
2019-04-14T04:14:42.261Z,6.63
2019-04-14T04:17:30.177Z,7.83
2019-04-14T04:20:22.085Z,6.17
2019-04-14T04:23:07.775Z,7.13
2019-04-14T04:25:59.476Z,6.97
2019-04-14T04:28:49.650Z,5.93
2019-04-14T04:31:30.722Z,6.87
2019-04-14T04:34:23.233Z,7.00
2019-04-14T04:37:17.121Z,6.83
2019-04-14T04:39:48.131Z,5.77
2019-04-14T04:42:18.090Z,5.90
2019-04-14T04:44:48.798Z,6.13
2019-04-14T04:47:18.849Z,6.20
2019-04-14T04:49:51.099Z,7.60
2019-04-14T04:52:21.333Z,5.83
2019-04-14T04:54:51.656Z,5.80
2019-04-14T04:57:22.104Z,5.53
2019-04-14T04:59:52.085Z,6.13
2019-04-14T05:02:22.132Z,6.83
2019-04-14T05:04:52.640Z,6.03
2019-04-14T05:07:23.108Z,5.50
2019-04-14T05:10:11.073Z,5.77
2019-04-14T05:12:47.970Z,4.50
2019-04-14T05:15:40.326Z,5.93
2019-04-14T05:18:22.078Z,6.27
2019-04-14T05:20:53.267Z,5.77
2019-04-14T05:23:25.525Z,6.70
2019-04-14T05:25:56.078Z,5.57
2019-04-14T05:28:26.713Z,6.10
2019-04-14T05:30:56.980Z,5.10
2019-04-14T05:33:27.157Z,5.63
2019-04-14T05:35:57.472Z,8.27
2019-04-14T05:38:29.447Z,5.80
2019-04-14T05:41:00.333Z,5.90
2019-04-14T05:43:41.465Z,5.00
2019-04-14T05:46:03.390Z,5.10
2019-04-14T05:48:33.742Z,6.97
2019-04-14T05:51:04.160Z,6.03
2019-04-14T05:53:35.103Z,5.50
2019-04-14T05:56:05.795Z,5.07
2019-04-14T05:58:36.127Z,5.87
2019-04-14T06:01:06.913Z,5.63
2019-04-14T06:03:36.989Z,4.93
2019-04-14T06:06:06.841Z,5.90
2019-04-14T06:08:36.750Z,4.77
2019-04-14T06:11:06.685Z,4.70
2019-04-14T06:13:48.713Z,5.60
2019-04-14T06:16:18.562Z,5.13
2019-04-14T06:18:48.518Z,4.73
2019-04-14T06:21:18.406Z,5.33
2019-04-14T06:23:48.346Z,4.87
2019-04-14T06:26:18.337Z,5.07
2019-04-14T06:28:48.290Z,4.93
2019-04-14T06:31:43.269Z,5.17
2019-04-14T06:34:19.233Z,4.73
2019-04-14T06:37:08.245Z,4.77
2019-04-14T06:39:41.646Z,4.17
2019-04-14T06:42:11.518Z,5.37
2019-04-14T06:44:41.446Z,4.50
2019-04-14T06:47:11.444Z,6.17
2019-04-14T06:49:48.778Z,3.90
2019-04-14T06:52:13.101Z,4.67
2019-04-14T06:54:43.115Z,4.93
2019-04-14T06:57:13.067Z,4.10
2019-04-14T06:59:42.944Z,5.43
2019-04-14T07:02:12.874Z,4.80
2019-04-14T07:04:42.814Z,5.20
2019-04-14T07:07:13.899Z,4.10
2019-04-14T07:09:43.887Z,4.10
2019-04-14T07:12:13.923Z,4.60
2019-04-14T07:14:43.994Z,4.27
2019-04-14T07:17:13.923Z,4.30
2019-04-14T07:19:43.853Z,4.23
2019-04-14T07:22:13.765Z,4.73
2019-04-14T07:24:43.689Z,5.00
2019-04-14T07:27:13.666Z,5.00
2019-04-14T07:29:51.628Z,4.60
2019-04-14T07:32:40.754Z,4.43
2019-04-14T07:35:35.573Z,5.00
2019-04-14T07:38:11.725Z,4.93
2019-04-14T07:40:50.798Z,3.77
2019-04-14T07:43:29.446Z,4.37
2019-04-14T07:46:09.981Z,3.47
2019-04-14T07:48:54.386Z,4.70
2019-04-14T07:51:29.936Z,4.47
2019-04-14T07:54:11.697Z,4.47
2019-04-14T07:56:59.354Z,4.47
2019-04-14T07:59:51.077Z,4.03
2019-04-14T08:02:35.817Z,4.57
2019-04-14T08:05:11.918Z,5.13
2019-04-14T08:07:42.327Z,4.00
2019-04-14T08:10:12.253Z,4.27
2019-04-14T08:12:42.215Z,3.90
2019-04-14T08:15:13.054Z,4.70
2019-04-14T08:17:43.697Z,4.23
2019-04-14T08:20:26.499Z,3.50
2019-04-14T08:22:45.584Z,4.80
2019-04-14T08:25:15.874Z,5.17
2019-04-14T08:27:45.959Z,3.33
2019-04-14T08:30:15.882Z,7.13
2019-04-14T08:32:45.818Z,6.10
2019-04-14T08:35:15.781Z,4.67
2019-04-14T08:37:45.729Z,8.33
2019-04-14T08:40:15.663Z,14.23
2019-04-14T08:43:13.998Z,4.27
2019-04-14T08:46:04.866Z,7.33
2019-04-14T08:48:52.499Z,8.93
2019-04-14T08:51:27.217Z,5.63
2019-04-14T08:54:14.917Z,11.30
2019-04-14T08:57:03.802Z,9.67
2019-04-14T08:59:43.145Z,5.83
2019-04-14T09:02:26.478Z,6.07
2019-04-14T09:05:11.269Z,5.37
2019-04-14T09:08:04.200Z,6.93
2019-04-14T09:10:37.922Z,7.63
2019-04-14T09:13:08.918Z,6.97
2019-04-14T09:15:39.868Z,8.50
2019-04-14T09:18:09.642Z,5.93
2019-04-14T09:20:51.796Z,8.63
2019-04-14T09:23:13.537Z,5.67
2019-04-14T09:25:43.401Z,12.60
2019-04-14T09:28:13.253Z,10.33
2019-04-14T09:30:43.230Z,8.10
2019-04-14T09:33:13.215Z,7.10
2019-04-14T09:35:43.170Z,6.77
2019-04-14T09:38:13.135Z,8.70
2019-04-14T09:40:43.110Z,8.90
2019-04-14T09:43:13.187Z,7.13
2019-04-14T09:45:43.131Z,9.63
2019-04-14T09:48:13.005Z,7.70
2019-04-14T09:50:43.013Z,5.63
2019-04-14T09:53:13.887Z,6.17
2019-04-14T09:55:43.868Z,5.70
2019-04-14T09:58:13.785Z,7.00
2019-04-14T10:00:43.745Z,6.20
2019-04-14T10:03:13.751Z,10.50
2019-04-14T10:05:43.608Z,8.13
2019-04-14T10:08:15.174Z,10.13
2019-04-14T10:10:45.211Z,9.97
2019-04-14T10:13:27.347Z,10.93
2019-04-14T10:15:57.265Z,14.83
2019-04-14T10:18:27.158Z,13.00
2019-04-14T10:20:57.126Z,14.60
2019-04-14T10:23:27.177Z,12.13
2019-04-14T10:25:57.093Z,13.27
2019-04-14T10:28:26.972Z,16.90
2019-04-14T10:30:57.788Z,17.20
2019-04-14T10:33:27.811Z,16.60
2019-04-14T10:35:57.765Z,23.43
2019-04-14T10:38:27.726Z,31.07
2019-04-14T10:40:58.748Z,38.33
2019-04-14T10:43:28.619Z,39.40
2019-04-14T10:45:58.464Z,39.30
2019-04-14T10:48:28.452Z,53.90
2019-04-14T10:50:58.390Z,44.23
2019-04-14T10:53:28.249Z,40.70
2019-04-14T10:55:59.206Z,50.77
2019-04-14T10:58:29.081Z,48.67
2019-04-14T11:00:59.025Z,35.57
2019-04-14T11:03:29.025Z,43.37
2019-04-14T11:06:24.141Z,43.30
2019-04-14T11:08:54.110Z,43.67
2019-04-14T11:11:23.957Z,33.37
2019-04-14T11:13:53.927Z,31.93
2019-04-14T11:16:23.805Z,46.47
2019-04-14T11:18:53.809Z,34.63
2019-04-14T11:21:23.689Z,33.00
2019-04-14T11:23:53.634Z,45.40
2019-04-14T11:26:23.588Z,29.03
2019-04-14T11:28:53.471Z,38.92
2019-04-14T11:31:45.195Z,37.50
2019-04-14T11:34:16.226Z,32.30
2019-04-14T11:37:11.251Z,32.93
2019-04-14T11:39:41.726Z,30.23
2019-04-14T11:42:11.750Z,26.27
2019-04-14T11:44:41.742Z,28.30
2019-04-14T11:47:11.805Z,31.87
2019-04-14T11:49:41.761Z,28.30
2019-04-14T11:52:11.730Z,22.87
2019-04-14T11:54:41.744Z,35.73
2019-04-14T11:57:11.682Z,25.63
2019-04-14T11:59:48.974Z,23.73
2019-04-14T12:02:23.902Z,36.37
2019-04-14T12:05:12.806Z,29.07
2019-04-14T12:08:02.358Z,33.57
2019-04-14T12:10:32.226Z,36.67
2019-04-14T12:13:02.103Z,28.47
2019-04-14T12:15:34.401Z,35.77
2019-04-14T12:18:03.889Z,30.40
2019-04-14T12:20:33.825Z,33.23
2019-04-14T12:23:03.774Z,32.43
2019-04-14T12:25:33.658Z,42.13
2019-04-14T12:28:04.676Z,31.10
2019-04-14T12:30:37.656Z,35.80
2019-04-14T12:33:07.803Z,33.03
2019-04-14T12:35:37.694Z,28.67
2019-04-14T12:38:07.590Z,31.13
2019-04-14T12:40:38.746Z,30.93
2019-04-14T12:43:26.499Z,30.13
2019-04-14T12:46:17.208Z,26.03
2019-04-14T12:49:12.206Z,33.97
2019-04-14T12:52:01.166Z,29.40
2019-04-14T12:54:31.218Z,30.40
2019-04-14T12:57:01.121Z,29.77
2019-04-14T12:59:32.626Z,30.17
2019-04-14T13:02:12.799Z,31.77
2019-04-14T13:04:42.715Z,30.00
2019-04-14T13:07:12.578Z,28.17
2019-04-14T13:09:42.466Z,25.60
2019-04-14T13:12:12.374Z,23.27
2019-04-14T13:14:42.236Z,22.70
2019-04-14T13:17:12.174Z,21.30
2019-04-14T13:19:42.023Z,26.23
2019-04-14T13:22:11.953Z,19.03
2019-04-14T13:24:41.809Z,24.27
2019-04-14T13:27:11.854Z,19.07
2019-04-14T13:29:41.739Z,22.63
2019-04-14T13:32:11.721Z,20.33
2019-04-14T13:34:41.658Z,20.20
2019-04-14T13:37:11.527Z,25.20
2019-04-14T13:39:41.469Z,20.13
2019-04-14T13:42:11.349Z,21.73
2019-04-14T13:44:41.351Z,18.57
2019-04-14T13:47:11.326Z,22.93
2019-04-14T13:49:41.323Z,19.87
2019-04-14T13:52:11.359Z,21.93
2019-04-14T13:54:41.358Z,19.03
2019-04-14T13:57:11.329Z,17.67
2019-04-14T13:59:41.337Z,16.87
2019-04-14T14:02:11.381Z,15.67
2019-04-14T14:04:42.393Z,13.03
2019-04-14T14:07:12.344Z,13.43
2019-04-14T14:09:42.708Z,12.37
2019-04-14T14:12:29.638Z,9.77
2019-04-14T14:15:14.363Z,12.27
2019-04-14T14:18:02.323Z,9.50
2019-04-14T14:20:57.616Z,10.10
2019-04-14T14:23:50.410Z,12.27
2019-04-14T14:26:21.650Z,10.07
2019-04-14T14:28:51.638Z,8.00
2019-04-14T14:31:22.179Z,9.57
2019-04-14T14:33:52.225Z,8.93
2019-04-14T14:36:22.187Z,8.07
2019-04-14T14:38:52.189Z,9.97
2019-04-14T14:41:22.242Z,10.27
2019-04-14T14:43:52.142Z,7.80
2019-04-14T14:46:39.936Z,7.77
2019-04-14T14:49:21.202Z,8.53
2019-04-14T14:51:57.249Z,10.67
2019-04-14T14:54:27.243Z,7.37
2019-04-14T14:56:57.147Z,9.37
2019-04-14T14:59:27.005Z,9.07
2019-04-14T15:01:56.959Z,11.77
2019-04-14T15:04:26.855Z,9.20
2019-04-14T15:06:56.831Z,12.87
2019-04-14T15:09:26.721Z,7.57
2019-04-14T15:11:56.891Z,6.77
2019-04-14T15:14:26.897Z,6.97
2019-04-14T15:16:56.825Z,9.80
2019-04-14T15:19:26.746Z,9.13
2019-04-14T15:21:56.689Z,7.77
2019-04-14T15:24:27.559Z,6.90
2019-04-14T15:26:57.506Z,11.57
2019-04-14T15:29:27.403Z,7.43
2019-04-14T15:31:57.372Z,7.60
2019-04-14T15:34:27.356Z,8.43
2019-04-14T15:36:57.253Z,7.80
2019-04-14T15:39:27.167Z,10.93
2019-04-14T15:41:57.184Z,8.17
2019-04-14T15:44:27.114Z,9.07
2019-04-14T15:46:57.048Z,11.13
2019-04-14T15:49:27.002Z,8.63
2019-04-14T15:51:56.970Z,12.83
2019-04-14T15:54:26.978Z,7.97
2019-04-14T15:57:28.219Z,9.03
2019-04-14T16:00:11.146Z,11.97
2019-04-14T16:03:18.658Z,14.10
2019-04-14T16:06:07.562Z,11.50
2019-04-14T16:08:50.682Z,8.50
2019-04-14T16:11:42.594Z,9.13
2019-04-14T16:14:31.516Z,7.63
2019-04-14T16:17:26.406Z,9.37
2019-04-14T16:20:03.872Z,10.73
2019-04-14T16:22:34.962Z,12.33
2019-04-14T16:25:05.205Z,13.47
2019-04-14T16:27:52.813Z,20.13
2019-04-14T16:30:38.777Z,17.30
2019-04-14T16:33:26.513Z,15.73
2019-04-14T16:35:56.607Z,16.80
2019-04-14T16:38:26.561Z,12.93
2019-04-14T16:40:56.497Z,18.87
2019-04-14T16:43:29.372Z,20.80
2019-04-14T16:45:59.374Z,19.67
2019-04-14T16:48:29.337Z,13.63
2019-04-14T16:51:00.182Z,17.30
2019-04-14T16:53:33.297Z,14.63
2019-04-14T16:56:25.259Z,16.87
2019-04-14T16:59:01.494Z,16.17
2019-04-14T17:01:36.919Z,19.50
2019-04-14T17:04:06.811Z,17.83
2019-04-14T17:06:36.750Z,18.00
2019-04-14T17:09:08.181Z,18.00
2019-04-14T17:11:39.795Z,17.33
2019-04-14T17:14:17.349Z,17.97
2019-04-14T17:17:09.424Z,22.03
2019-04-14T17:19:57.853Z,13.90
2019-04-14T17:22:52.028Z,16.93
2019-04-14T17:25:27.714Z,18.53
2019-04-14T17:28:21.962Z,12.37
2019-04-14T17:31:09.479Z,19.10
2019-04-14T17:33:58.507Z,16.63
2019-04-14T17:36:33.291Z,14.00
2019-04-14T17:39:20.836Z,16.30
2019-04-14T17:42:03.006Z,16.83
2019-04-14T17:44:38.449Z,14.70
2019-04-14T17:47:25.941Z,13.27
2019-04-14T17:50:14.226Z,14.03
2019-04-14T17:52:48.294Z,13.27
2019-04-14T17:55:49.789Z,12.53
2019-04-14T17:58:29.337Z,12.03
2019-04-14T18:01:12.660Z,12.20
2019-04-14T18:03:57.005Z,9.67
2019-04-14T18:06:46.054Z,13.27
2019-04-14T18:09:34.973Z,7.50
2019-04-14T18:12:22.472Z,14.63
2019-04-14T18:15:11.758Z,12.63
2019-04-14T18:17:59.377Z,13.07
2019-04-14T18:20:54.442Z,13.70
2019-04-14T18:23:24.407Z,15.77
2019-04-14T18:25:54.611Z,9.17
2019-04-14T18:28:35.256Z,14.67
2019-04-14T18:31:27.449Z,10.33
2019-04-14T18:34:07.009Z,10.40
2019-04-14T18:36:46.116Z,11.97
2019-04-14T18:39:35.158Z,11.60
2019-04-14T18:42:24.117Z,11.97
2019-04-14T18:45:13.235Z,20.60
2019-04-14T18:47:53.423Z,13.97
2019-04-14T18:50:33.202Z,14.57
2019-04-14T18:53:07.170Z,14.83
2019-04-14T18:55:48.889Z,11.73
2019-04-14T18:58:36.525Z,17.67
2019-04-14T19:01:13.342Z,13.20
2019-04-14T19:03:43.656Z,15.87
2019-04-14T19:06:13.574Z,17.10
2019-04-14T19:08:43.711Z,15.90
2019-04-14T19:11:35.721Z,12.60
2019-04-14T19:14:06.972Z,16.07
2019-04-14T19:16:43.367Z,15.93
2019-04-14T19:19:13.314Z,13.93
2019-04-14T19:21:43.544Z,16.20
2019-04-14T19:24:13.681Z,14.70
2019-04-14T19:26:43.682Z,16.27
2019-04-14T19:29:13.710Z,12.63
2019-04-14T19:31:43.906Z,18.17
2019-04-14T19:34:13.961Z,11.73
2019-04-14T19:36:43.842Z,17.90
2019-04-14T19:39:13.856Z,12.37
2019-04-14T19:41:44.288Z,15.53
2019-04-14T19:44:14.162Z,15.07
2019-04-14T19:46:45.165Z,14.80
2019-04-14T19:49:15.195Z,14.77
2019-04-14T19:51:46.213Z,12.23
2019-04-14T19:54:16.428Z,16.17
2019-04-14T19:56:46.467Z,14.70
2019-04-14T19:59:16.438Z,20.17
2019-04-14T20:01:46.450Z,20.60
2019-04-14T20:04:16.313Z,21.43
2019-04-14T20:06:46.547Z,18.17
2019-04-14T20:09:16.438Z,17.60
2019-04-14T20:11:46.492Z,16.03
2019-04-14T20:14:16.446Z,17.73
2019-04-14T20:17:07.154Z,16.73
2019-04-14T20:20:14.229Z,19.97
2019-04-14T20:23:01.899Z,19.37
2019-04-14T20:25:48.477Z,16.60
2019-04-14T20:28:24.701Z,22.90
2019-04-14T20:31:05.230Z,12.77
2019-04-14T20:33:35.167Z,17.10
2019-04-14T20:36:05.413Z,19.47
2019-04-14T20:38:35.309Z,15.80
2019-04-14T20:41:05.329Z,16.47
2019-04-14T20:43:35.253Z,17.47
2019-04-14T20:46:05.200Z,13.80
2019-04-14T20:48:35.149Z,12.40
2019-04-14T20:51:05.078Z,10.67
2019-04-14T20:53:35.066Z,15.00
2019-04-14T20:56:05.026Z,14.63
2019-04-14T20:58:34.997Z,12.37
2019-04-14T21:01:06.501Z,10.63
2019-04-14T21:03:48.645Z,11.30
2019-04-14T21:06:29.480Z,14.70
2019-04-14T21:09:33.405Z,13.87
2019-04-14T21:12:25.247Z,10.43
2019-04-14T21:15:16.765Z,10.87
2019-04-14T21:18:00.791Z,14.03
2019-04-14T21:20:51.242Z,13.60
2019-04-14T21:23:42.914Z,14.30
2019-04-14T21:26:20.731Z,10.80
2019-04-14T21:29:09.766Z,12.30
2019-04-14T21:32:04.465Z,10.90
2019-04-14T21:34:52.010Z,12.10
2019-04-14T21:37:41.928Z,11.07
2019-04-14T21:40:36.548Z,10.93
2019-04-14T21:43:06.501Z,10.87
2019-04-14T21:45:36.437Z,10.63
2019-04-14T21:48:06.433Z,11.33
2019-04-14T21:50:36.317Z,10.60
2019-04-14T21:53:06.246Z,14.33
2019-04-14T21:55:36.225Z,7.83
2019-04-14T21:58:21.214Z,9.33
2019-04-14T22:01:48.209Z,11.33
2019-04-14T22:04:31.445Z,9.43
2019-04-14T22:07:13.606Z,11.67
2019-04-14T22:09:43.650Z,8.93
2019-04-14T22:12:13.547Z,9.13
2019-04-14T22:14:43.668Z,8.00
2019-04-14T22:17:13.526Z,9.87
2019-04-14T22:19:43.402Z,9.50
2019-04-14T22:22:13.270Z,10.30
2019-04-14T22:24:43.503Z,10.03
2019-04-14T22:27:13.466Z,8.33
2019-04-14T22:29:43.472Z,9.03
2019-04-14T22:32:13.332Z,7.57
2019-04-14T22:34:43.186Z,9.83
2019-04-14T22:37:13.122Z,9.23
2019-04-14T22:39:43.123Z,8.43
2019-04-14T22:42:13.174Z,9.90
2019-04-14T22:44:43.129Z,7.50
2019-04-14T22:47:12.990Z,9.00
2019-04-14T22:49:42.939Z,8.37
2019-04-14T22:52:12.819Z,8.33
2019-04-14T22:54:42.687Z,7.37
2019-04-14T22:57:12.582Z,8.50
2019-04-14T22:59:42.506Z,8.17
2019-04-14T23:02:22.517Z,6.23
2019-04-14T23:05:10.266Z,9.10
2019-04-14T23:08:05.239Z,8.27
2019-04-14T23:10:44.858Z,8.07
2019-04-14T23:13:39.650Z,7.13
2019-04-14T23:16:17.900Z,7.70
2019-04-14T23:18:59.766Z,7.13
2019-04-14T23:21:39.468Z,10.30
2019-04-14T23:24:17.613Z,6.30
2019-04-14T23:26:52.839Z,6.67
2019-04-14T23:29:19.214Z,6.20
2019-04-14T23:31:49.285Z,6.73
2019-04-14T23:34:19.210Z,6.20
2019-04-14T23:36:49.137Z,6.17
2019-04-14T23:39:19.062Z,6.47
2019-04-14T23:41:48.990Z,6.67
2019-04-14T23:44:18.957Z,6.33
2019-04-14T23:46:48.902Z,6.00
2019-04-14T23:49:18.831Z,7.00
2019-04-14T23:51:48.730Z,6.60
2019-04-14T23:54:18.655Z,5.97
2019-04-14T23:56:48.601Z,6.07
2019-04-14T23:59:18.454Z,5.83
